sensor_id;sensor_type;location;lat;lon;timestamp;pressure;altitude;pressure_sealevel;temperature;humidity
19672;BME280;9983;51.114;13.788;2023-03-15T00:02:27;98665.38;;;4.23;100.00
19672;BME280;9983;51.114;13.788;2023-03-15T00:07:27;98665.84;;;4.01;100.00
19672;BME280;9983;51.114;13.788;2023-03-15T00:12:28;98672.81;;;4.02;100.00
19672;BME280;9983;51.114;13.788;2023-03-15T00:17:28;98672.34;;;4.24;100.00
19672;BME280;9983;51.114;13.788;2023-03-15T00:22:28;98675.44;;;4.19;100.00
19672;BME280;9983;51.114;13.788;2023-03-15T00:27:28;98693.72;;;4.05;100.00
19672;BME280;9983;51.114;13.788;2023-03-15T00:32:29;98694.31;;;3.63;100.00
19672;BME280;9983;51.114;13.788;2023-03-15T00:37:30;98698.72;;;3.72;100.00
19672;BME280;9983;51.114;13.788;2023-03-15T00:42:31;98713.25;;;3.68;100.00
19672;BME280;9983;51.114;13.788;2023-03-15T00:47:31;98709.09;;;3.66;100.00
19672;BME280;9983;51.114;13.788;2023-03-15T00:52:35;98721.50;;;2.83;100.00
19672;BME280;9983;51.114;13.788;2023-03-15T00:57:36;98721.63;;;3.19;100.00
19672;BME280;9983;51.114;13.788;2023-03-15T01:02:36;98724.00;;;3.49;100.00
19672;BME280;9983;51.114;13.788;2023-03-15T01:07:36;98724.69;;;3.69;100.00
19672;BME280;9983;51.114;13.788;2023-03-15T01:12:37;98720.84;;;3.09;100.00
19672;BME280;9983;51.114;13.788;2023-03-15T01:17:37;98738.81;;;3.42;100.00
19672;BME280;9983;51.114;13.788;2023-03-15T01:22:38;98744.69;;;3.36;100.00
19672;BME280;9983;51.114;13.788;2023-03-15T01:27:38;98752.44;;;3.20;100.00
19672;BME280;9983;51.114;13.788;2023-03-15T01:32:39;98748.53;;;3.51;100.00
19672;BME280;9983;51.114;13.788;2023-03-15T01:37:39;98747.25;;;3.28;100.00
19672;BME280;9983;51.114;13.788;2023-03-15T01:42:54;98754.47;;;3.80;100.00
19672;BME280;9983;51.114;13.788;2023-03-15T01:48:11;98756.88;;;3.56;100.00
19672;BME280;9983;51.114;13.788;2023-03-15T01:53:11;98752.22;;;3.40;100.00
19672;BME280;9983;51.114;13.788;2023-03-15T01:58:12;98758.63;;;3.38;100.00
19672;BME280;9983;51.114;13.788;2023-03-15T02:03:20;98751.38;;;3.40;100.00
19672;BME280;9983;51.114;13.788;2023-03-15T02:08:25;98761.88;;;3.59;100.00
19672;BME280;9983;51.114;13.788;2023-03-15T02:13:28;98757.66;;;3.02;100.00
19672;BME280;9983;51.114;13.788;2023-03-15T02:18:29;98763.00;;;2.92;100.00
19672;BME280;9983;51.114;13.788;2023-03-15T02:23:29;98756.16;;;3.27;100.00
19672;BME280;9983;51.114;13.788;2023-03-15T02:28:31;98767.94;;;3.15;100.00
19672;BME280;9983;51.114;13.788;2023-03-15T02:33:39;98770.06;;;3.01;100.00
19672;BME280;9983;51.114;13.788;2023-03-15T02:38:40;98782.84;;;3.16;100.00
19672;BME280;9983;51.114;13.788;2023-03-15T02:43:41;98793.34;;;3.08;100.00
19672;BME280;9983;51.114;13.788;2023-03-15T02:48:44;98792.53;;;2.97;100.00
19672;BME280;9983;51.114;13.788;2023-03-15T02:53:45;98796.94;;;2.41;100.00
19672;BME280;9983;51.114;13.788;2023-03-15T02:58:46;98803.69;;;2.91;100.00
19672;BME280;9983;51.114;13.788;2023-03-15T03:03:47;98806.63;;;2.69;100.00
19672;BME280;9983;51.114;13.788;2023-03-15T03:08:47;98811.38;;;2.75;100.00
19672;BME280;9983;51.114;13.788;2023-03-15T03:13:47;98813.69;;;2.97;100.00
19672;BME280;9983;51.114;13.788;2023-03-15T03:18:48;98824.34;;;2.59;100.00
19672;BME280;9983;51.114;13.788;2023-03-15T03:23:48;98833.00;;;2.42;100.00
19672;BME280;9983;51.114;13.788;2023-03-15T03:28:48;98847.19;;;2.31;100.00
19672;BME280;9983;51.114;13.788;2023-03-15T03:33:49;98852.16;;;2.05;100.00
19672;BME280;9983;51.114;13.788;2023-03-15T03:38:49;98857.09;;;1.79;100.00
19672;BME280;9983;51.114;13.788;2023-03-15T03:43:50;98863.03;;;2.21;100.00
19672;BME280;9983;51.114;13.788;2023-03-15T03:48:50;98866.88;;;1.98;100.00
19672;BME280;9983;51.114;13.788;2023-03-15T03:53:51;98872.50;;;2.43;100.00
19672;BME280;9983;51.114;13.788;2023-03-15T03:58:51;98883.16;;;2.03;100.00
19672;BME280;9983;51.114;13.788;2023-03-15T04:03:51;98876.63;;;1.98;100.00
19672;BME280;9983;51.114;13.788;2023-03-15T04:08:51;98882.19;;;2.04;100.00
19672;BME280;9983;51.114;13.788;2023-03-15T04:13:52;98890.34;;;2.32;100.00
19672;BME280;9983;51.114;13.788;2023-03-15T04:18:52;98904.47;;;2.11;100.00
19672;BME280;9983;51.114;13.788;2023-03-15T04:23:55;98910.09;;;2.27;100.00
19672;BME280;9983;51.114;13.788;2023-03-15T04:28:56;98921.94;;;1.93;100.00
19672;BME280;9983;51.114;13.788;2023-03-15T04:33:57;98932.81;;;1.90;100.00
19672;BME280;9983;51.114;13.788;2023-03-15T04:38:57;98946.09;;;1.79;100.00
19672;BME280;9983;51.114;13.788;2023-03-15T04:44:05;98948.03;;;1.77;100.00
19672;BME280;9983;51.114;13.788;2023-03-15T04:49:05;98956.94;;;1.25;100.00
19672;BME280;9983;51.114;13.788;2023-03-15T04:54:05;98962.38;;;1.53;100.00
19672;BME280;9983;51.114;13.788;2023-03-15T04:59:05;98967.66;;;1.53;100.00
19672;BME280;9983;51.114;13.788;2023-03-15T05:04:06;98969.19;;;1.77;100.00
19672;BME280;9983;51.114;13.788;2023-03-15T05:09:06;98977.75;;;1.90;100.00
19672;BME280;9983;51.114;13.788;2023-03-15T05:14:06;98982.22;;;1.69;100.00
19672;BME280;9983;51.114;13.788;2023-03-15T05:19:07;98998.41;;;1.55;100.00
19672;BME280;9983;51.114;13.788;2023-03-15T05:24:07;99013.13;;;1.78;100.00
19672;BME280;9983;51.114;13.788;2023-03-15T05:29:07;99011.38;;;2.09;100.00
19672;BME280;9983;51.114;13.788;2023-03-15T05:34:07;99026.09;;;2.11;100.00
19672;BME280;9983;51.114;13.788;2023-03-15T05:39:08;99029.53;;;1.30;100.00
19672;BME280;9983;51.114;13.788;2023-03-15T05:44:08;99035.31;;;1.86;100.00
19672;BME280;9983;51.114;13.788;2023-03-15T05:49:09;99038.53;;;1.90;100.00
19672;BME280;9983;51.114;13.788;2023-03-15T05:54:09;99047.22;;;2.02;100.00
19672;BME280;9983;51.114;13.788;2023-03-15T05:59:09;99063.81;;;1.83;100.00
19672;BME280;9983;51.114;13.788;2023-03-15T06:04:10;99069.19;;;2.02;100.00
19672;BME280;9983;51.114;13.788;2023-03-15T06:09:10;99074.25;;;2.05;100.00
19672;BME280;9983;51.114;13.788;2023-03-15T06:14:10;99080.84;;;2.20;100.00
19672;BME280;9983;51.114;13.788;2023-03-15T06:19:11;99084.13;;;2.34;100.00
19672;BME280;9983;51.114;13.788;2023-03-15T06:24:11;99082.28;;;2.64;100.00
19672;BME280;9983;51.114;13.788;2023-03-15T06:29:11;99096.91;;;2.59;100.00
19672;BME280;9983;51.114;13.788;2023-03-15T06:34:11;99106.78;;;2.57;100.00
19672;BME280;9983;51.114;13.788;2023-03-15T06:39:12;99115.44;;;2.68;100.00
19672;BME280;9983;51.114;13.788;2023-03-15T06:44:12;99121.72;;;3.08;100.00
19672;BME280;9983;51.114;13.788;2023-03-15T06:49:12;99125.56;;;2.94;100.00
19672;BME280;9983;51.114;13.788;2023-03-15T06:54:13;99126.19;;;3.17;100.00
19672;BME280;9983;51.114;13.788;2023-03-15T06:59:13;99134.81;;;3.19;100.00
19672;BME280;9983;51.114;13.788;2023-03-15T07:04:13;99131.81;;;3.33;100.00
19672;BME280;9983;51.114;13.788;2023-03-15T07:09:14;99131.81;;;3.62;100.00
19672;BME280;9983;51.114;13.788;2023-03-15T07:14:14;99137.66;;;4.04;98.38
19672;BME280;9983;51.114;13.788;2023-03-15T07:19:14;99130.00;;;3.81;96.51
19672;BME280;9983;51.114;13.788;2023-03-15T07:24:15;99127.09;;;3.85;93.62
19672;BME280;9983;51.114;13.788;2023-03-15T07:29:15;99139.91;;;3.99;92.36
19672;BME280;9983;51.114;13.788;2023-03-15T07:34:15;99140.25;;;4.70;90.51
19672;BME280;9983;51.114;13.788;2023-03-15T07:39:15;99154.84;;;4.66;87.41
19672;BME280;9983;51.114;13.788;2023-03-15T07:44:16;99145.72;;;4.31;85.10
19672;BME280;9983;51.114;13.788;2023-03-15T07:49:17;99154.56;;;5.23;86.28
19672;BME280;9983;51.114;13.788;2023-03-15T07:54:17;99149.59;;;4.83;82.88
19672;BME280;9983;51.114;13.788;2023-03-15T07:59:18;99140.19;;;5.44;82.91
19672;BME280;9983;51.114;13.788;2023-03-15T08:04:18;99149.47;;;4.85;82.50
19672;BME280;9983;51.114;13.788;2023-03-15T08:09:18;99161.25;;;5.27;79.61
19672;BME280;9983;51.114;13.788;2023-03-15T08:14:19;99160.66;;;5.33;76.94
19672;BME280;9983;51.114;13.788;2023-03-15T08:19:19;99174.66;;;5.36;76.06
19672;BME280;9983;51.114;13.788;2023-03-15T08:24:21;99184.19;;;5.01;77.79
19672;BME280;9983;51.114;13.788;2023-03-15T08:29:21;99180.94;;;5.07;80.81
19672;BME280;9983;51.114;13.788;2023-03-15T08:34:22;99190.13;;;5.13;80.15
19672;BME280;9983;51.114;13.788;2023-03-15T08:39:23;99210.34;;;4.96;84.71
19672;BME280;9983;51.114;13.788;2023-03-15T08:44:23;99215.97;;;4.93;87.65
19672;BME280;9983;51.114;13.788;2023-03-15T08:49:23;99222.19;;;4.65;91.18
19672;BME280;9983;51.114;13.788;2023-03-15T08:54:24;99235.09;;;4.40;96.43
19672;BME280;9983;51.114;13.788;2023-03-15T08:59:26;99257.16;;;3.93;100.00
19672;BME280;9983;51.114;13.788;2023-03-15T09:04:26;99256.06;;;4.43;100.00
19672;BME280;9983;51.114;13.788;2023-03-15T09:09:26;99262.13;;;3.57;100.00
19672;BME280;9983;51.114;13.788;2023-03-15T09:14:27;99258.81;;;3.94;100.00
19672;BME280;9983;51.114;13.788;2023-03-15T09:19:27;99266.66;;;4.05;100.00
19672;BME280;9983;51.114;13.788;2023-03-15T09:24:27;99270.81;;;3.78;100.00
19672;BME280;9983;51.114;13.788;2023-03-15T09:29:27;99266.09;;;4.40;100.00
19672;BME280;9983;51.114;13.788;2023-03-15T09:34:28;99258.00;;;4.41;100.00
19672;BME280;9983;51.114;13.788;2023-03-15T09:39:29;99257.81;;;4.52;100.00
19672;BME280;9983;51.114;13.788;2023-03-15T09:44:48;99268.88;;;5.51;100.00
19672;BME280;9983;51.114;13.788;2023-03-15T09:49:54;99273.03;;;4.70;100.00
19672;BME280;9983;51.114;13.788;2023-03-15T09:55:09;99273.28;;;4.86;100.00
19672;BME280;9983;51.114;13.788;2023-03-15T10:00:16;99264.81;;;5.74;100.00
19672;BME280;9983;51.114;13.788;2023-03-15T10:05:22;99270.19;;;5.00;100.00
19672;BME280;9983;51.114;13.788;2023-03-15T10:10:34;99272.94;;;5.18;100.00
19672;BME280;9983;51.114;13.788;2023-03-15T10:16:01;99276.56;;;5.71;100.00
19672;BME280;9983;51.114;13.788;2023-03-15T10:21:10;99281.94;;;4.88;100.00
19672;BME280;9983;51.114;13.788;2023-03-15T10:26:14;99287.22;;;5.07;100.00
19672;BME280;9983;51.114;13.788;2023-03-15T10:31:21;99298.44;;;4.91;100.00
19672;BME280;9983;51.114;13.788;2023-03-15T10:36:24;99300.44;;;4.70;100.00
19672;BME280;9983;51.114;13.788;2023-03-15T10:41:41;99297.94;;;4.49;100.00
19672;BME280;9983;51.114;13.788;2023-03-15T10:47:15;99303.50;;;4.85;100.00
19672;BME280;9983;51.114;13.788;2023-03-15T10:52:38;99320.66;;;5.47;100.00
19672;BME280;9983;51.114;13.788;2023-03-15T10:57:50;99313.13;;;5.42;100.00
19672;BME280;9983;51.114;13.788;2023-03-15T11:03:00;99308.44;;;5.54;100.00
19672;BME280;9983;51.114;13.788;2023-03-15T11:08:00;99319.06;;;5.26;99.31
19672;BME280;9983;51.114;13.788;2023-03-15T11:13:20;99316.44;;;5.81;98.58
19672;BME280;9983;51.114;13.788;2023-03-15T11:18:29;99299.38;;;5.47;93.02
19672;BME280;9983;51.114;13.788;2023-03-15T11:23:34;99306.94;;;5.51;91.31
19672;BME280;9983;51.114;13.788;2023-03-15T11:28:37;99311.97;;;5.45;87.45
19672;BME280;9983;51.114;13.788;2023-03-15T11:33:44;99313.66;;;5.73;89.77
19672;BME280;9983;51.114;13.788;2023-03-15T11:38:47;99307.97;;;5.68;88.43
19672;BME280;9983;51.114;13.788;2023-03-15T11:44:24;99311.47;;;5.96;85.36
19672;BME280;9983;51.114;13.788;2023-03-15T11:49:48;99317.06;;;6.02;82.73
19672;BME280;9983;51.114;13.788;2023-03-15T11:54:50;99301.59;;;6.06;77.45
19672;BME280;9983;51.114;13.788;2023-03-15T11:59:54;99302.84;;;5.84;73.28
19672;BME280;9983;51.114;13.788;2023-03-15T12:04:55;99305.91;;;5.89;72.95
19672;BME280;9983;51.114;13.788;2023-03-15T12:20:33;99295.44;;;6.05;72.85
19672;BME280;9983;51.114;13.788;2023-03-15T12:25:36;99302.69;;;6.48;73.18
19672;BME280;9983;51.114;13.788;2023-03-15T12:30:40;99289.88;;;6.96;70.91
19672;BME280;9983;51.114;13.788;2023-03-15T12:35:42;99293.78;;;7.27;68.30
19672;BME280;9983;51.114;13.788;2023-03-15T12:40:54;99287.50;;;6.84;69.27
19672;BME280;9983;51.114;13.788;2023-03-15T12:45:55;99297.91;;;7.55;67.09
19672;BME280;9983;51.114;13.788;2023-03-15T12:51:03;99293.97;;;7.68;68.60
19672;BME280;9983;51.114;13.788;2023-03-15T13:01:23;99287.84;;;8.42;64.76
19672;BME280;9983;51.114;13.788;2023-03-15T13:06:37;99295.81;;;9.14;58.97
19672;BME280;9983;51.114;13.788;2023-03-15T13:12:06;99283.56;;;9.83;57.46
19672;BME280;9983;51.114;13.788;2023-03-15T13:17:41;99284.50;;;10.52;53.93
19672;BME280;9983;51.114;13.788;2023-03-15T13:22:56;99294.97;;;9.77;53.11
19672;BME280;9983;51.114;13.788;2023-03-15T13:28:06;99299.19;;;8.92;55.23
19672;BME280;9983;51.114;13.788;2023-03-15T13:43:36;99307.09;;;8.03;63.71
19672;BME280;9983;51.114;13.788;2023-03-15T13:48:41;99315.16;;;8.27;65.23
19672;BME280;9983;51.114;13.788;2023-03-15T13:53:42;99317.06;;;7.93;66.75
19672;BME280;9983;51.114;13.788;2023-03-15T13:58:42;99327.13;;;8.07;66.76
19672;BME280;9983;51.114;13.788;2023-03-15T14:03:46;99332.31;;;7.67;68.22
19672;BME280;9983;51.114;13.788;2023-03-15T14:08:48;99328.38;;;9.34;61.82
19672;BME280;9983;51.114;13.788;2023-03-15T14:13:55;99335.63;;;8.61;64.46
19672;BME280;9983;51.114;13.788;2023-03-15T14:19:20;99341.34;;;8.24;62.03
19672;BME280;9983;51.114;13.788;2023-03-15T14:24:36;99347.28;;;8.44;60.15
19672;BME280;9983;51.114;13.788;2023-03-15T14:29:38;99344.94;;;8.41;58.20
19672;BME280;9983;51.114;13.788;2023-03-15T14:34:46;99336.06;;;9.93;53.37
19672;BME280;9983;51.114;13.788;2023-03-15T14:39:46;99341.63;;;9.11;55.13
19672;BME280;9983;51.114;13.788;2023-03-15T14:44:47;99337.25;;;9.35;52.27
19672;BME280;9983;51.114;13.788;2023-03-15T14:49:47;99336.44;;;8.53;53.21
19672;BME280;9983;51.114;13.788;2023-03-15T14:54:48;99346.63;;;8.50;52.31
19672;BME280;9983;51.114;13.788;2023-03-15T14:59:49;99339.31;;;8.92;51.54
19672;BME280;9983;51.114;13.788;2023-03-15T15:04:49;99347.59;;;8.32;52.68
19672;BME280;9983;51.114;13.788;2023-03-15T15:09:50;99346.94;;;8.47;52.10
19672;BME280;9983;51.114;13.788;2023-03-15T15:14:51;99359.50;;;8.12;55.32
19672;BME280;9983;51.114;13.788;2023-03-15T15:19:51;99361.78;;;7.91;56.53
19672;BME280;9983;51.114;13.788;2023-03-15T15:24:51;99365.00;;;8.03;58.15
19672;BME280;9983;51.114;13.788;2023-03-15T15:29:52;99369.03;;;7.73;58.46
19672;BME280;9983;51.114;13.788;2023-03-15T15:34:52;99373.72;;;7.79;61.13
19672;BME280;9983;51.114;13.788;2023-03-15T15:39:54;99378.50;;;8.01;58.33
19672;BME280;9983;51.114;13.788;2023-03-15T15:44:54;99390.06;;;7.76;57.79
19672;BME280;9983;51.114;13.788;2023-03-15T15:49:54;99396.09;;;7.78;57.94
19672;BME280;9983;51.114;13.788;2023-03-15T15:54:54;99399.28;;;7.55;59.35
19672;BME280;9983;51.114;13.788;2023-03-15T15:59:55;99407.78;;;7.85;58.89
19672;BME280;9983;51.114;13.788;2023-03-15T16:04:55;99412.41;;;8.51;57.82
19672;BME280;9983;51.114;13.788;2023-03-15T16:09:56;99411.47;;;8.84;55.65
19672;BME280;9983;51.114;13.788;2023-03-15T16:14:57;99419.09;;;9.84;53.76
19672;BME280;9983;51.114;13.788;2023-03-15T16:19:58;99418.81;;;9.55;53.43
19672;BME280;9983;51.114;13.788;2023-03-15T16:24:58;99434.06;;;9.06;54.34
19672;BME280;9983;51.114;13.788;2023-03-15T16:30:00;99448.22;;;8.74;55.52
19672;BME280;9983;51.114;13.788;2023-03-15T16:35:01;99446.53;;;7.97;55.31
19672;BME280;9983;51.114;13.788;2023-03-15T16:40:01;99460.06;;;7.44;55.20
19672;BME280;9983;51.114;13.788;2023-03-15T16:45:11;99460.56;;;7.47;54.93
19672;BME280;9983;51.114;13.788;2023-03-15T16:50:11;99475.09;;;7.27;54.44
19672;BME280;9983;51.114;13.788;2023-03-15T16:55:13;99491.16;;;7.35;56.06
19672;BME280;9983;51.114;13.788;2023-03-15T17:00:14;99493.38;;;7.22;55.61
19672;BME280;9983;51.114;13.788;2023-03-15T17:05:19;99493.22;;;7.06;57.31
19672;BME280;9983;51.114;13.788;2023-03-15T17:10:33;99509.97;;;7.16;56.34
19672;BME280;9983;51.114;13.788;2023-03-15T17:15:34;99519.78;;;6.98;56.44
19672;BME280;9983;51.114;13.788;2023-03-15T17:20:34;99525.31;;;6.86;57.00
19672;BME280;9983;51.114;13.788;2023-03-15T17:25:35;99531.44;;;6.97;57.61
19672;BME280;9983;51.114;13.788;2023-03-15T17:30:36;99534.19;;;7.05;57.83
19672;BME280;9983;51.114;13.788;2023-03-15T17:35:39;99551.03;;;6.60;64.99
19672;BME280;9983;51.114;13.788;2023-03-15T17:40:41;99555.88;;;6.65;60.86
19672;BME280;9983;51.114;13.788;2023-03-15T17:45:41;99565.44;;;6.21;63.61
19672;BME280;9983;51.114;13.788;2023-03-15T17:50:42;99584.94;;;6.12;64.55
19672;BME280;9983;51.114;13.788;2023-03-15T17:55:44;99587.66;;;5.92;70.47
19672;BME280;9983;51.114;13.788;2023-03-15T18:00:48;99585.41;;;5.97;72.52
19672;BME280;9983;51.114;13.788;2023-03-15T18:05:49;99601.66;;;5.56;76.74
19672;BME280;9983;51.114;13.788;2023-03-15T18:10:50;99599.41;;;5.61;78.14
19672;BME280;9983;51.114;13.788;2023-03-15T18:15:51;99604.44;;;5.83;76.46
19672;BME280;9983;51.114;13.788;2023-03-15T18:20:51;99615.38;;;5.80;78.19
19672;BME280;9983;51.114;13.788;2023-03-15T18:25:53;99621.13;;;5.85;76.11
19672;BME280;9983;51.114;13.788;2023-03-15T18:30:53;99619.28;;;5.95;75.46
19672;BME280;9983;51.114;13.788;2023-03-15T18:35:53;99628.53;;;5.72;82.07
19672;BME280;9983;51.114;13.788;2023-03-15T18:40:53;99637.63;;;5.41;83.41
19672;BME280;9983;51.114;13.788;2023-03-15T18:45:54;99641.66;;;5.25;82.43
19672;BME280;9983;51.114;13.788;2023-03-15T18:50:55;99641.00;;;4.93;84.73
19672;BME280;9983;51.114;13.788;2023-03-15T18:55:55;99640.22;;;4.41;90.00
19672;BME280;9983;51.114;13.788;2023-03-15T19:00:56;99654.22;;;4.02;93.44
19672;BME280;9983;51.114;13.788;2023-03-15T19:06:02;99653.31;;;3.92;93.92
19672;BME280;9983;51.114;13.788;2023-03-15T19:11:04;99655.31;;;4.20;91.70
19672;BME280;9983;51.114;13.788;2023-03-15T19:16:05;99652.66;;;3.78;93.36
19672;BME280;9983;51.114;13.788;2023-03-15T19:21:05;99666.25;;;3.53;95.46
19672;BME280;9983;51.114;13.788;2023-03-15T19:26:06;99676.50;;;3.78;94.10
19672;BME280;9983;51.114;13.788;2023-03-15T19:31:06;99676.00;;;3.10;97.49
19672;BME280;9983;51.114;13.788;2023-03-15T19:36:08;99676.94;;;2.53;100.00
19672;BME280;9983;51.114;13.788;2023-03-15T19:41:08;99693.69;;;2.53;100.00
19672;BME280;9983;51.114;13.788;2023-03-15T19:46:09;99685.84;;;2.52;100.00
19672;BME280;9983;51.114;13.788;2023-03-15T19:51:10;99699.34;;;2.60;100.00
19672;BME280;9983;51.114;13.788;2023-03-15T19:56:11;99709.84;;;2.15;100.00
19672;BME280;9983;51.114;13.788;2023-03-15T20:01:11;99719.03;;;2.45;100.00
19672;BME280;9983;51.114;13.788;2023-03-15T20:06:11;99730.81;;;1.71;100.00
19672;BME280;9983;51.114;13.788;2023-03-15T20:11:12;99735.44;;;1.80;100.00
19672;BME280;9983;51.114;13.788;2023-03-15T20:16:20;99734.78;;;1.52;100.00
19672;BME280;9983;51.114;13.788;2023-03-15T20:21:21;99743.91;;;1.96;100.00
19672;BME280;9983;51.114;13.788;2023-03-15T20:26:21;99746.81;;;2.04;100.00
19672;BME280;9983;51.114;13.788;2023-03-15T20:31:24;99749.84;;;2.11;100.00
19672;BME280;9983;51.114;13.788;2023-03-15T20:36:24;99760.16;;;1.79;100.00
19672;BME280;9983;51.114;13.788;2023-03-15T20:41:25;99765.91;;;1.73;100.00
19672;BME280;9983;51.114;13.788;2023-03-15T20:46:26;99773.09;;;1.71;100.00
19672;BME280;9983;51.114;13.788;2023-03-15T20:51:27;99782.22;;;1.67;100.00
19672;BME280;9983;51.114;13.788;2023-03-15T20:56:27;99784.13;;;1.65;100.00
19672;BME280;9983;51.114;13.788;2023-03-15T21:01:28;99791.75;;;1.57;100.00
19672;BME280;9983;51.114;13.788;2023-03-15T21:06:28;99792.28;;;1.25;100.00
19672;BME280;9983;51.114;13.788;2023-03-15T21:11:28;99796.94;;;1.58;100.00
19672;BME280;9983;51.114;13.788;2023-03-15T21:16:29;99800.84;;;0.91;100.00
19672;BME280;9983;51.114;13.788;2023-03-15T21:21:32;99811.88;;;1.46;100.00
19672;BME280;9983;51.114;13.788;2023-03-15T21:26:32;99800.31;;;0.86;100.00
19672;BME280;9983;51.114;13.788;2023-03-15T21:31:32;99806.66;;;1.08;100.00
19672;BME280;9983;51.114;13.788;2023-03-15T21:36:35;99813.19;;;0.77;100.00
19672;BME280;9983;51.114;13.788;2023-03-15T21:41:35;99823.97;;;0.74;100.00
19672;BME280;9983;51.114;13.788;2023-03-15T21:46:36;99824.91;;;0.73;100.00
19672;BME280;9983;51.114;13.788;2023-03-15T21:51:36;99823.69;;;1.53;100.00
19672;BME280;9983;51.114;13.788;2023-03-15T21:56:36;99827.91;;;1.43;100.00
19672;BME280;9983;51.114;13.788;2023-03-15T22:01:37;99831.97;;;0.86;100.00
19672;BME280;9983;51.114;13.788;2023-03-15T22:06:37;99832.19;;;0.95;100.00
19672;BME280;9983;51.114;13.788;2023-03-15T22:11:37;99840.66;;;0.88;100.00
19672;BME280;9983;51.114;13.788;2023-03-15T22:16:37;99832.41;;;0.80;100.00
19672;BME280;9983;51.114;13.788;2023-03-15T22:21:38;99839.34;;;0.55;100.00
19672;BME280;9983;51.114;13.788;2023-03-15T22:26:38;99857.25;;;1.15;100.00
19672;BME280;9983;51.114;13.788;2023-03-15T22:31:38;99857.53;;;1.48;100.00
19672;BME280;9983;51.114;13.788;2023-03-15T22:36:38;99861.88;;;1.24;100.00
19672;BME280;9983;51.114;13.788;2023-03-15T22:41:39;99859.41;;;0.70;100.00
19672;BME280;9983;51.114;13.788;2023-03-15T22:46:39;99858.63;;;1.08;100.00
19672;BME280;9983;51.114;13.788;2023-03-15T22:51:39;99861.53;;;0.65;100.00
19672;BME280;9983;51.114;13.788;2023-03-15T22:56:39;99864.09;;;1.05;100.00
19672;BME280;9983;51.114;13.788;2023-03-15T23:01:40;99869.16;;;1.33;100.00
19672;BME280;9983;51.114;13.788;2023-03-15T23:06:40;99879.09;;;1.17;100.00
19672;BME280;9983;51.114;13.788;2023-03-15T23:11:40;99878.88;;;0.82;100.00
19672;BME280;9983;51.114;13.788;2023-03-15T23:16:41;99882.16;;;1.11;100.00
19672;BME280;9983;51.114;13.788;2023-03-15T23:21:44;99883.44;;;0.53;100.00
19672;BME280;9983;51.114;13.788;2023-03-15T23:26:44;99885.00;;;0.83;100.00
19672;BME280;9983;51.114;13.788;2023-03-15T23:31:44;99889.19;;;0.72;100.00
19672;BME280;9983;51.114;13.788;2023-03-15T23:36:45;99884.16;;;0.95;100.00
19672;BME280;9983;51.114;13.788;2023-03-15T23:41:45;99890.03;;;0.86;100.00
19672;BME280;9983;51.114;13.788;2023-03-15T23:46:46;99891.28;;;0.67;100.00
19672;BME280;9983;51.114;13.788;2023-03-15T23:51:47;99905.03;;;0.72;100.00
19672;BME280;9983;51.114;13.788;2023-03-15T23:56:48;99899.63;;;0.34;100.00
